Boynton Beach, FL

5:48 AM EDT on August 27, 2016 (GMT -0400)
sunny south estates | | Change Station

Elev 36 ft 26.53 °N, 80.11 °W | Updated 22 seconds ago

Mostly Cloudy
Mostly Cloudy
81.4 °F
Feels Like 89 °F
N
3.0
Wind Variable Wind from East

Today
High -- | Low -- °F
--% Chance of Precip.
Yesterday
High -- | Low -- °F
Precip. -- in
Pressure 29.90 in
Visibility 10.0 miles
Clouds Few 2500 ft
Few 9000 ft
Mostly Cloudy 25000 ft
Heat Index 89 °F
Dew Point 77 °F
Humidity 86%
Rainfall 0.00 in
Snow Depth Not available.
6:58 AM 7:44 PM
Waning Crescent, 26% visible
METAR KPBI 270853Z 06007KT 10SM FEW025 FEW090 BKN250 28/23 A2990 RMK AO2 SLP125 FRQ LTGICCC DSNT S CB DSNT S T02830233 56011
Pressure 29.90 in
Visibility 10.0 miles
Clouds Few 2500 ft
Few 9000 ft
Mostly Cloudy 25000 ft
Heat Index 89 °F
Dew Point 77 °F
Humidity 86%
Rainfall 0.00 in
Snow Depth Not available.
6:58 AM 7:44 PM
Waning Crescent, 26% visible
METAR KPBI 270853Z 06007KT 10SM FEW025 FEW090 BKN250 28/23 A2990 RMK AO2 SLP125 FRQ LTGICCC DSNT S CB DSNT S T02830233 56011

10-Day Weather Forecast

Almanac

Astronomy

Aug. 27, 2016 Rise Set
Actual Time
Civil Twilight
Nautical Twilight
Astronomical Twilight
Moon
Length of Visible Light
Length of Day
Tomorrow will be .
, % of the Moon is Illuminated

Today's Extremes

State Highs State Lows

Community

WunderPhotos

Upload Photos

1,935,313 photos uploaded!

WunderBlog® & News

Nearby

Air Quality

  Air Quality AQ Index Pollutant
Not available.

Snow Depth

Station Depth Elevation

Earthquake Activity

City Distance Mag. Time & Date
Minimum magnitude displayed is 2.5.

Coastal Water Temperatures

Place Temperature

Stations

Nearby Weather Stations

Station Location Temp. Windchill Dew Point Humidity Wind Precip. Elev Updated Type
                   

Watches & Warnings

There are currently no watches in effect.